sensor_id;sensor_type;location;lat;lon;timestamp;P1;durP1;ratioP1;P2;durP2;ratioP2
67751;SDS011;54551;51.068;5.826;2023-02-24T00:01:25;56.03;;;19.37;;
67751;SDS011;54551;51.068;5.826;2023-02-24T00:04:01;59.17;;;20.20;;
67751;SDS011;54551;51.068;5.826;2023-02-24T00:06:28;33.90;;;11.17;;
67751;SDS011;54551;51.068;5.826;2023-02-24T00:09:08;28.73;;;13.30;;
67751;SDS011;54551;51.068;5.826;2023-02-24T00:11:36;31.43;;;9.87;;
67751;SDS011;54551;51.068;5.826;2023-02-24T00:14:04;20.70;;;6.93;;
67751;SDS011;54551;51.068;5.826;2023-02-24T00:16:35;19.60;;;5.37;;
67751;SDS011;54551;51.068;5.826;2023-02-24T00:19:04;23.17;;;7.70;;
67751;SDS011;54551;51.068;5.826;2023-02-24T00:21:33;23.30;;;7.17;;
67751;SDS011;54551;51.068;5.826;2023-02-24T00:24:00;21.43;;;8.63;;
67751;SDS011;54551;51.068;5.826;2023-02-24T00:26:26;26.90;;;5.13;;
67751;SDS011;54551;51.068;5.826;2023-02-24T00:28:56;25.63;;;7.20;;
67751;SDS011;54551;51.068;5.826;2023-02-24T00:31:24;42.67;;;17.23;;
67751;SDS011;54551;51.068;5.826;2023-02-24T00:33:54;33.63;;;14.93;;
67751;SDS011;54551;51.068;5.826;2023-02-24T00:36:22;24.33;;;8.27;;
67751;SDS011;54551;51.068;5.826;2023-02-24T00:38:55;28.57;;;8.83;;
67751;SDS011;54551;51.068;5.826;2023-02-24T00:41:24;26.83;;;8.23;;
67751;SDS011;54551;51.068;5.826;2023-02-24T00:43:55;28.97;;;9.60;;
67751;SDS011;54551;51.068;5.826;2023-02-24T00:46:23;21.83;;;7.77;;
67751;SDS011;54551;51.068;5.826;2023-02-24T00:48:51;24.30;;;5.27;;
67751;SDS011;54551;51.068;5.826;2023-02-24T00:51:20;17.60;;;4.03;;
67751;SDS011;54551;51.068;5.826;2023-02-24T00:53:51;18.53;;;7.00;;
67751;SDS011;54551;51.068;5.826;2023-02-24T00:56:23;25.70;;;8.93;;
67751;SDS011;54551;51.068;5.826;2023-02-24T00:58:54;22.83;;;7.60;;
67751;SDS011;54551;51.068;5.826;2023-02-24T01:01:28;21.97;;;6.37;;
67751;SDS011;54551;51.068;5.826;2023-02-24T01:03:59;24.37;;;6.80;;
67751;SDS011;54551;51.068;5.826;2023-02-24T01:06:30;16.47;;;5.30;;
67751;SDS011;54551;51.068;5.826;2023-02-24T01:08:58;31.37;;;8.87;;
67751;SDS011;54551;51.068;5.826;2023-02-24T01:11:27;24.87;;;8.87;;
67751;SDS011;54551;51.068;5.826;2023-02-24T01:14:18;26.13;;;7.13;;
67751;SDS011;54551;51.068;5.826;2023-02-24T01:16:46;25.93;;;6.73;;
67751;SDS011;54551;51.068;5.826;2023-02-24T01:19:19;27.63;;;8.57;;
67751;SDS011;54551;51.068;5.826;2023-02-24T01:21:47;18.23;;;6.13;;
67751;SDS011;54551;51.068;5.826;2023-02-24T01:24:18;24.60;;;6.23;;
67751;SDS011;54551;51.068;5.826;2023-02-24T01:26:44;25.00;;;7.00;;
67751;SDS011;54551;51.068;5.826;2023-02-24T01:29:10;18.53;;;7.27;;
67751;SDS011;54551;51.068;5.826;2023-02-24T01:31:36;25.60;;;8.03;;
67751;SDS011;54551;51.068;5.826;2023-02-24T01:34:04;20.87;;;7.53;;
67751;SDS011;54551;51.068;5.826;2023-02-24T01:36:31;41.97;;;7.03;;
67751;SDS011;54551;51.068;5.826;2023-02-24T01:38:59;26.10;;;8.00;;
67751;SDS011;54551;51.068;5.826;2023-02-24T01:41:27;20.53;;;5.83;;
67751;SDS011;54551;51.068;5.826;2023-02-24T01:46:36;23.47;;;5.83;;
67751;SDS011;54551;51.068;5.826;2023-02-24T01:49:08;22.13;;;5.13;;
67751;SDS011;54551;51.068;5.826;2023-02-24T01:51:39;23.50;;;5.07;;
67751;SDS011;54551;51.068;5.826;2023-02-24T01:54:12;20.23;;;5.77;;
67751;SDS011;54551;51.068;5.826;2023-02-24T01:56:40;23.30;;;5.17;;
67751;SDS011;54551;51.068;5.826;2023-02-24T01:59:08;17.23;;;4.70;;
67751;SDS011;54551;51.068;5.826;2023-02-24T02:01:37;23.47;;;5.93;;
67751;SDS011;54551;51.068;5.826;2023-02-24T02:04:10;26.60;;;5.37;;
67751;SDS011;54551;51.068;5.826;2023-02-24T02:06:43;17.40;;;4.73;;
67751;SDS011;54551;51.068;5.826;2023-02-24T02:09:10;30.03;;;6.10;;
67751;SDS011;54551;51.068;5.826;2023-02-24T02:11:40;25.33;;;5.73;;
67751;SDS011;54551;51.068;5.826;2023-02-24T02:14:06;20.77;;;5.20;;
67751;SDS011;54551;51.068;5.826;2023-02-24T02:22:03;24.37;;;4.63;;
67751;SDS011;54551;51.068;5.826;2023-02-24T02:41:49;21.07;;;5.20;;
67751;SDS011;54551;51.068;5.826;2023-02-24T02:47:12;19.80;;;4.87;;
67751;SDS011;54551;51.068;5.826;2023-02-24T02:49:57;17.73;;;4.60;;
67751;SDS011;54551;51.068;5.826;2023-02-24T02:52:37;19.50;;;4.80;;
67751;SDS011;54551;51.068;5.826;2023-02-24T02:55:09;25.53;;;5.60;;
67751;SDS011;54551;51.068;5.826;2023-02-24T02:57:45;23.73;;;5.07;;
67751;SDS011;54551;51.068;5.826;2023-02-24T03:00:15;27.97;;;6.10;;
67751;SDS011;54551;51.068;5.826;2023-02-24T03:02:49;17.50;;;4.90;;
67751;SDS011;54551;51.068;5.826;2023-02-24T03:05:17;18.27;;;4.80;;
67751;SDS011;54551;51.068;5.826;2023-02-24T03:07:48;23.67;;;5.83;;
67751;SDS011;54551;51.068;5.826;2023-02-24T03:10:22;22.70;;;5.10;;
67751;SDS011;54551;51.068;5.826;2023-02-24T03:12:56;23.57;;;4.70;;
67751;SDS011;54551;51.068;5.826;2023-02-24T03:15:27;19.37;;;5.43;;
67751;SDS011;54551;51.068;5.826;2023-02-24T03:18:01;24.13;;;5.13;;
67751;SDS011;54551;51.068;5.826;2023-02-24T03:20:35;19.07;;;5.37;;
67751;SDS011;54551;51.068;5.826;2023-02-24T03:23:09;20.40;;;5.43;;
67751;SDS011;54551;51.068;5.826;2023-02-24T03:25:43;18.67;;;4.97;;
67751;SDS011;54551;51.068;5.826;2023-02-24T03:28:20;21.13;;;4.77;;
67751;SDS011;54551;51.068;5.826;2023-02-24T03:31:15;17.70;;;5.00;;
67751;SDS011;54551;51.068;5.826;2023-02-24T03:33:49;20.40;;;5.37;;
67751;SDS011;54551;51.068;5.826;2023-02-24T03:36:30;20.23;;;4.63;;
67751;SDS011;54551;51.068;5.826;2023-02-24T03:38:57;15.27;;;4.50;;
67751;SDS011;54551;51.068;5.826;2023-02-24T03:41:27;17.87;;;4.73;;
67751;SDS011;54551;51.068;5.826;2023-02-24T03:44:09;23.30;;;4.73;;
67751;SDS011;54551;51.068;5.826;2023-02-24T03:46:37;25.13;;;5.17;;
67751;SDS011;54551;51.068;5.826;2023-02-24T03:49:08;19.80;;;5.30;;
67751;SDS011;54551;51.068;5.826;2023-02-24T03:51:44;23.07;;;4.77;;
67751;SDS011;54551;51.068;5.826;2023-02-24T04:00:22;19.00;;;4.90;;
67751;SDS011;54551;51.068;5.826;2023-02-24T04:03:01;18.17;;;4.63;;
67751;SDS011;54551;51.068;5.826;2023-02-24T04:08:42;17.93;;;5.00;;
67751;SDS011;54551;51.068;5.826;2023-02-24T04:11:31;24.67;;;5.70;;
67751;SDS011;54551;51.068;5.826;2023-02-24T04:17:02;26.63;;;5.70;;
67751;SDS011;54551;51.068;5.826;2023-02-24T04:19:39;24.03;;;5.80;;
67751;SDS011;54551;51.068;5.826;2023-02-24T04:22:10;21.87;;;5.47;;
67751;SDS011;54551;51.068;5.826;2023-02-24T04:24:40;19.97;;;5.03;;
67751;SDS011;54551;51.068;5.826;2023-02-24T04:27:09;18.03;;;5.00;;
67751;SDS011;54551;51.068;5.826;2023-02-24T04:29:41;20.43;;;5.60;;
67751;SDS011;54551;51.068;5.826;2023-02-24T04:32:14;22.60;;;5.60;;
67751;SDS011;54551;51.068;5.826;2023-02-24T04:34:43;20.73;;;4.93;;
67751;SDS011;54551;51.068;5.826;2023-02-24T04:37:10;16.47;;;5.17;;
67751;SDS011;54551;51.068;5.826;2023-02-24T04:39:36;28.70;;;5.50;;
67751;SDS011;54551;51.068;5.826;2023-02-24T04:42:07;18.90;;;4.97;;
67751;SDS011;54551;51.068;5.826;2023-02-24T04:44:33;24.00;;;5.63;;
67751;SDS011;54551;51.068;5.826;2023-02-24T04:46:59;19.63;;;4.93;;
67751;SDS011;54551;51.068;5.826;2023-02-24T04:49:25;23.47;;;5.63;;
67751;SDS011;54551;51.068;5.826;2023-02-24T04:51:51;19.90;;;5.13;;
67751;SDS011;54551;51.068;5.826;2023-02-24T04:54:18;18.97;;;5.17;;
67751;SDS011;54551;51.068;5.826;2023-02-24T04:56:45;22.23;;;5.77;;
67751;SDS011;54551;51.068;5.826;2023-02-24T04:59:13;19.20;;;4.67;;
67751;SDS011;54551;51.068;5.826;2023-02-24T05:01:40;19.73;;;5.33;;
67751;SDS011;54551;51.068;5.826;2023-02-24T05:04:08;18.47;;;5.07;;
67751;SDS011;54551;51.068;5.826;2023-02-24T05:06:35;14.90;;;4.50;;
67751;SDS011;54551;51.068;5.826;2023-02-24T05:09:09;18.43;;;4.83;;
67751;SDS011;54551;51.068;5.826;2023-02-24T05:11:39;19.27;;;4.67;;
67751;SDS011;54551;51.068;5.826;2023-02-24T05:14:07;17.47;;;4.57;;
67751;SDS011;54551;51.068;5.826;2023-02-24T05:16:39;11.97;;;3.77;;
67751;SDS011;54551;51.068;5.826;2023-02-24T05:19:09;20.33;;;4.97;;
67751;SDS011;54551;51.068;5.826;2023-02-24T05:21:55;25.07;;;5.67;;
67751;SDS011;54551;51.068;5.826;2023-02-24T05:24:24;26.10;;;5.67;;
67751;SDS011;54551;51.068;5.826;2023-02-24T05:26:53;21.33;;;5.53;;
67751;SDS011;54551;51.068;5.826;2023-02-24T05:29:26;19.90;;;5.63;;
67751;SDS011;54551;51.068;5.826;2023-02-24T05:31:53;20.17;;;4.67;;
67751;SDS011;54551;51.068;5.826;2023-02-24T05:34:23;19.10;;;5.87;;
67751;SDS011;54551;51.068;5.826;2023-02-24T05:36:50;18.30;;;5.17;;
67751;SDS011;54551;51.068;5.826;2023-02-24T05:39:17;10.93;;;4.30;;
67751;SDS011;54551;51.068;5.826;2023-02-24T05:41:45;19.47;;;5.20;;
67751;SDS011;54551;51.068;5.826;2023-02-24T05:44:13;19.23;;;5.20;;
67751;SDS011;54551;51.068;5.826;2023-02-24T05:46:44;18.97;;;5.03;;
67751;SDS011;54551;51.068;5.826;2023-02-24T05:49:13;19.97;;;4.67;;
67751;SDS011;54551;51.068;5.826;2023-02-24T05:51:40;16.03;;;4.20;;
67751;SDS011;54551;51.068;5.826;2023-02-24T05:54:19;16.03;;;4.53;;
67751;SDS011;54551;51.068;5.826;2023-02-24T05:56:47;23.43;;;4.70;;
67751;SDS011;54551;51.068;5.826;2023-02-24T05:59:13;17.40;;;4.07;;
67751;SDS011;54551;51.068;5.826;2023-02-24T06:01:45;20.17;;;4.20;;
67751;SDS011;54551;51.068;5.826;2023-02-24T06:04:13;24.57;;;4.40;;
67751;SDS011;54551;51.068;5.826;2023-02-24T06:07:10;17.03;;;4.70;;
67751;SDS011;54551;51.068;5.826;2023-02-24T06:09:39;16.03;;;4.37;;
67751;SDS011;54551;51.068;5.826;2023-02-24T06:12:09;17.20;;;3.93;;
67751;SDS011;54551;51.068;5.826;2023-02-24T06:14:36;24.13;;;4.97;;
67751;SDS011;54551;51.068;5.826;2023-02-24T06:17:02;15.10;;;4.17;;
67751;SDS011;54551;51.068;5.826;2023-02-24T06:19:28;21.90;;;4.67;;
67751;SDS011;54551;51.068;5.826;2023-02-24T06:21:58;15.57;;;3.90;;
67751;SDS011;54551;51.068;5.826;2023-02-24T06:24:30;12.30;;;3.87;;
67751;SDS011;54551;51.068;5.826;2023-02-24T06:26:57;25.40;;;4.77;;
67751;SDS011;54551;51.068;5.826;2023-02-24T06:29:30;13.67;;;3.90;;
67751;SDS011;54551;51.068;5.826;2023-02-24T06:31:56;14.10;;;4.07;;
67751;SDS011;54551;51.068;5.826;2023-02-24T06:34:22;13.00;;;4.03;;
67751;SDS011;54551;51.068;5.826;2023-02-24T06:36:52;23.30;;;4.93;;
67751;SDS011;54551;51.068;5.826;2023-02-24T06:39:18;19.37;;;4.43;;
67751;SDS011;54551;51.068;5.826;2023-02-24T06:41:44;18.83;;;4.90;;
67751;SDS011;54551;51.068;5.826;2023-02-24T06:44:13;21.43;;;5.27;;
67751;SDS011;54551;51.068;5.826;2023-02-24T06:46:39;11.77;;;3.80;;
67751;SDS011;54551;51.068;5.826;2023-02-24T06:49:05;16.03;;;5.23;;
67751;SDS011;54551;51.068;5.826;2023-02-24T06:51:31;17.00;;;4.70;;
67751;SDS011;54551;51.068;5.826;2023-02-24T06:53:57;16.13;;;5.00;;
67751;SDS011;54551;51.068;5.826;2023-02-24T06:56:24;17.83;;;4.33;;
67751;SDS011;54551;51.068;5.826;2023-02-24T06:58:51;14.63;;;4.47;;
67751;SDS011;54551;51.068;5.826;2023-02-24T07:01:20;17.53;;;4.60;;
67751;SDS011;54551;51.068;5.826;2023-02-24T07:03:51;21.57;;;4.90;;
67751;SDS011;54551;51.068;5.826;2023-02-24T07:06:42;17.00;;;4.37;;
67751;SDS011;54551;51.068;5.826;2023-02-24T07:09:15;20.37;;;5.30;;
67751;SDS011;54551;51.068;5.826;2023-02-24T07:11:43;15.63;;;4.40;;
67751;SDS011;54551;51.068;5.826;2023-02-24T07:14:12;22.37;;;4.77;;
67751;SDS011;54551;51.068;5.826;2023-02-24T07:16:39;18.07;;;4.30;;
67751;SDS011;54551;51.068;5.826;2023-02-24T07:19:10;16.23;;;4.27;;
67751;SDS011;54551;51.068;5.826;2023-02-24T07:21:39;18.43;;;4.57;;
67751;SDS011;54551;51.068;5.826;2023-02-24T07:24:08;13.63;;;3.93;;
67751;SDS011;54551;51.068;5.826;2023-02-24T07:26:38;14.33;;;4.00;;
67751;SDS011;54551;51.068;5.826;2023-02-24T07:29:09;16.00;;;4.37;;
67751;SDS011;54551;51.068;5.826;2023-02-24T07:31:36;19.47;;;4.23;;
67751;SDS011;54551;51.068;5.826;2023-02-24T07:34:03;14.20;;;4.10;;
67751;SDS011;54551;51.068;5.826;2023-02-24T07:36:30;20.23;;;4.07;;
67751;SDS011;54551;51.068;5.826;2023-02-24T07:39:13;17.47;;;4.07;;
67751;SDS011;54551;51.068;5.826;2023-02-24T07:41:40;13.33;;;3.47;;
67751;SDS011;54551;51.068;5.826;2023-02-24T07:44:09;13.73;;;4.83;;
67751;SDS011;54551;51.068;5.826;2023-02-24T07:46:36;11.80;;;3.70;;
67751;SDS011;54551;51.068;5.826;2023-02-24T07:49:02;13.33;;;4.30;;
67751;SDS011;54551;51.068;5.826;2023-02-24T07:51:28;18.50;;;4.03;;
67751;SDS011;54551;51.068;5.826;2023-02-24T07:53:56;14.47;;;4.37;;
67751;SDS011;54551;51.068;5.826;2023-02-24T07:56:24;17.23;;;4.50;;
67751;SDS011;54551;51.068;5.826;2023-02-24T07:58:53;15.10;;;4.73;;
67751;SDS011;54551;51.068;5.826;2023-02-24T08:01:24;20.07;;;5.20;;
67751;SDS011;54551;51.068;5.826;2023-02-24T08:03:53;15.57;;;5.10;;
67751;SDS011;54551;51.068;5.826;2023-02-24T08:06:24;15.70;;;4.87;;
67751;SDS011;54551;51.068;5.826;2023-02-24T08:09:03;14.80;;;5.20;;
67751;SDS011;54551;51.068;5.826;2023-02-24T08:11:43;16.83;;;5.43;;
67751;SDS011;54551;51.068;5.826;2023-02-24T08:14:11;17.77;;;5.70;;
67751;SDS011;54551;51.068;5.826;2023-02-24T08:16:48;17.20;;;5.37;;
67751;SDS011;54551;51.068;5.826;2023-02-24T08:19:16;15.93;;;5.00;;
67751;SDS011;54551;51.068;5.826;2023-02-24T08:21:48;18.27;;;5.43;;
67751;SDS011;54551;51.068;5.826;2023-02-24T08:24:17;17.90;;;5.20;;
67751;SDS011;54551;51.068;5.826;2023-02-24T08:26:52;14.57;;;5.03;;
67751;SDS011;54551;51.068;5.826;2023-02-24T08:32:43;14.23;;;5.20;;
67751;SDS011;54551;51.068;5.826;2023-02-24T08:35:16;19.17;;;5.40;;
67751;SDS011;54551;51.068;5.826;2023-02-24T08:37:47;16.77;;;5.57;;
67751;SDS011;54551;51.068;5.826;2023-02-24T08:40:22;22.10;;;6.40;;
67751;SDS011;54551;51.068;5.826;2023-02-24T08:43:06;22.20;;;6.80;;
67751;SDS011;54551;51.068;5.826;2023-02-24T08:45:46;17.83;;;5.80;;
67751;SDS011;54551;51.068;5.826;2023-02-24T08:48:35;16.73;;;5.90;;
67751;SDS011;54551;51.068;5.826;2023-02-24T08:53:49;20.93;;;6.67;;
67751;SDS011;54551;51.068;5.826;2023-02-24T08:56:27;15.67;;;5.93;;
67751;SDS011;54551;51.068;5.826;2023-02-24T08:58:59;14.17;;;6.33;;
67751;SDS011;54551;51.068;5.826;2023-02-24T09:01:30;16.40;;;6.57;;
67751;SDS011;54551;51.068;5.826;2023-02-24T09:04:05;15.47;;;5.50;;
67751;SDS011;54551;51.068;5.826;2023-02-24T09:06:46;19.77;;;6.03;;
67751;SDS011;54551;51.068;5.826;2023-02-24T09:09:15;20.53;;;6.90;;
67751;SDS011;54551;51.068;5.826;2023-02-24T09:14:15;17.10;;;7.50;;
67751;SDS011;54551;51.068;5.826;2023-02-24T09:16:47;13.67;;;5.53;;
67751;SDS011;54551;51.068;5.826;2023-02-24T09:22:10;13.90;;;5.30;;
67751;SDS011;54551;51.068;5.826;2023-02-24T09:24:59;11.87;;;5.53;;
67751;SDS011;54551;51.068;5.826;2023-02-24T09:27:50;22.47;;;5.67;;
67751;SDS011;54551;51.068;5.826;2023-02-24T09:30:32;16.63;;;5.17;;
67751;SDS011;54551;51.068;5.826;2023-02-24T09:33:04;13.70;;;4.90;;
67751;SDS011;54551;51.068;5.826;2023-02-24T09:35:33;15.23;;;5.17;;
67751;SDS011;54551;51.068;5.826;2023-02-24T09:38:04;14.57;;;4.53;;
67751;SDS011;54551;51.068;5.826;2023-02-24T09:40:33;11.13;;;4.70;;
67751;SDS011;54551;51.068;5.826;2023-02-24T09:43:05;14.67;;;4.50;;
67751;SDS011;54551;51.068;5.826;2023-02-24T09:46:04;12.63;;;4.73;;
67751;SDS011;54551;51.068;5.826;2023-02-24T09:48:54;12.77;;;4.70;;
67751;SDS011;54551;51.068;5.826;2023-02-24T09:51:30;10.73;;;4.00;;
67751;SDS011;54551;51.068;5.826;2023-02-24T09:54:13;12.03;;;4.30;;
67751;SDS011;54551;51.068;5.826;2023-02-24T09:56:53;12.43;;;3.80;;
67751;SDS011;54551;51.068;5.826;2023-02-24T09:59:35;13.77;;;3.40;;
67751;SDS011;54551;51.068;5.826;2023-02-24T10:08:09;9.90;;;3.73;;
67751;SDS011;54551;51.068;5.826;2023-02-24T10:10:42;13.83;;;3.50;;
67751;SDS011;54551;51.068;5.826;2023-02-24T10:13:24;11.90;;;3.17;;
67751;SDS011;54551;51.068;5.826;2023-02-24T10:15:57;11.50;;;3.40;;
67751;SDS011;54551;51.068;5.826;2023-02-24T10:18:31;12.20;;;3.33;;
67751;SDS011;54551;51.068;5.826;2023-02-24T10:24:28;13.50;;;3.57;;
67751;SDS011;54551;51.068;5.826;2023-02-24T10:27:00;11.17;;;3.30;;
67751;SDS011;54551;51.068;5.826;2023-02-24T10:35:15;11.03;;;3.47;;
67751;SDS011;54551;51.068;5.826;2023-02-24T10:37:44;20.87;;;5.13;;
67751;SDS011;54551;51.068;5.826;2023-02-24T10:40:11;18.07;;;4.90;;
67751;SDS011;54551;51.068;5.826;2023-02-24T10:42:49;19.13;;;4.67;;
67751;SDS011;54551;51.068;5.826;2023-02-24T10:45:22;13.07;;;4.20;;
67751;SDS011;54551;51.068;5.826;2023-02-24T10:47:51;15.83;;;4.33;;
67751;SDS011;54551;51.068;5.826;2023-02-24T10:50:23;13.67;;;4.57;;
67751;SDS011;54551;51.068;5.826;2023-02-24T10:53:04;15.67;;;4.40;;
67751;SDS011;54551;51.068;5.826;2023-02-24T10:55:37;14.03;;;3.97;;
67751;SDS011;54551;51.068;5.826;2023-02-24T10:58:26;12.30;;;3.97;;
67751;SDS011;54551;51.068;5.826;2023-02-24T11:00:56;18.53;;;5.30;;
67751;SDS011;54551;51.068;5.826;2023-02-24T11:03:46;10.67;;;3.93;;
67751;SDS011;54551;51.068;5.826;2023-02-24T11:06:30;13.90;;;4.30;;
67751;SDS011;54551;51.068;5.826;2023-02-24T11:12:10;14.63;;;3.60;;
67751;SDS011;54551;51.068;5.826;2023-02-24T11:15:05;14.33;;;5.17;;
67751;SDS011;54551;51.068;5.826;2023-02-24T11:18:22;16.70;;;4.60;;
67751;SDS011;54551;51.068;5.826;2023-02-24T11:20:51;16.57;;;4.30;;
67751;SDS011;54551;51.068;5.826;2023-02-24T11:23:38;9.13;;;3.60;;
67751;SDS011;54551;51.068;5.826;2023-02-24T11:50:55;14.20;;;4.30;;
67751;SDS011;54551;51.068;5.826;2023-02-24T11:53:29;10.80;;;3.67;;
67751;SDS011;54551;51.068;5.826;2023-02-24T12:05:04;14.07;;;4.07;;
67751;SDS011;54551;51.068;5.826;2023-02-24T12:07:31;11.50;;;3.53;;
67751;SDS011;54551;51.068;5.826;2023-02-24T12:10:22;13.80;;;4.43;;
67751;SDS011;54551;51.068;5.826;2023-02-24T12:18:26;13.57;;;3.70;;
67751;SDS011;54551;51.068;5.826;2023-02-24T12:21:21;10.53;;;3.77;;
67751;SDS011;54551;51.068;5.826;2023-02-24T12:23:54;12.80;;;3.83;;
67751;SDS011;54551;51.068;5.826;2023-02-24T12:32:18;13.83;;;3.63;;
67751;SDS011;54551;51.068;5.826;2023-02-24T12:43:42;13.33;;;4.17;;
67751;SDS011;54551;51.068;5.826;2023-02-24T12:46:30;10.50;;;3.83;;
67751;SDS011;54551;51.068;5.826;2023-02-24T12:54:28;11.87;;;3.77;;
67751;SDS011;54551;51.068;5.826;2023-02-24T12:57:08;10.13;;;3.73;;
67751;SDS011;54551;51.068;5.826;2023-02-24T12:59:56;13.67;;;3.50;;
67751;SDS011;54551;51.068;5.826;2023-02-24T13:05:07;10.77;;;3.47;;
67751;SDS011;54551;51.068;5.826;2023-02-24T13:07:49;11.43;;;3.90;;
67751;SDS011;54551;51.068;5.826;2023-02-24T13:15:35;12.43;;;4.07;;
67751;SDS011;54551;51.068;5.826;2023-02-24T13:18:01;10.77;;;3.70;;
67751;SDS011;54551;51.068;5.826;2023-02-24T13:22:58;12.37;;;4.63;;
67751;SDS011;54551;51.068;5.826;2023-02-24T13:25:35;10.33;;;3.90;;
67751;SDS011;54551;51.068;5.826;2023-02-24T13:28:03;9.40;;;4.10;;
67751;SDS011;54551;51.068;5.826;2023-02-24T13:30:55;9.33;;;3.87;;
67751;SDS011;54551;51.068;5.826;2023-02-24T13:33:28;13.17;;;4.20;;
67751;SDS011;54551;51.068;5.826;2023-02-24T13:36:17;8.23;;;4.07;;
67751;SDS011;54551;51.068;5.826;2023-02-24T13:38:47;13.83;;;4.83;;
67751;SDS011;54551;51.068;5.826;2023-02-24T13:46:19;12.80;;;4.53;;
67751;SDS011;54551;51.068;5.826;2023-02-24T13:54:30;11.90;;;4.60;;
67751;SDS011;54551;51.068;5.826;2023-02-24T14:03:07;10.57;;;4.77;;
67751;SDS011;54551;51.068;5.826;2023-02-24T14:05:41;12.47;;;4.43;;
67751;SDS011;54551;51.068;5.826;2023-02-24T14:08:11;12.63;;;5.00;;
67751;SDS011;54551;51.068;5.826;2023-02-24T14:10:47;10.80;;;5.40;;
67751;SDS011;54551;51.068;5.826;2023-02-24T14:13:21;11.23;;;5.47;;
67751;SDS011;54551;51.068;5.826;2023-02-24T14:15:52;15.10;;;5.13;;
67751;SDS011;54551;51.068;5.826;2023-02-24T14:18:19;13.60;;;5.10;;
67751;SDS011;54551;51.068;5.826;2023-02-24T14:20:51;13.27;;;5.53;;
67751;SDS011;54551;51.068;5.826;2023-02-24T14:23:27;11.73;;;4.63;;
67751;SDS011;54551;51.068;5.826;2023-02-24T14:26:00;13.67;;;6.27;;
67751;SDS011;54551;51.068;5.826;2023-02-24T14:28:32;11.37;;;5.30;;
67751;SDS011;54551;51.068;5.826;2023-02-24T14:31:08;15.33;;;6.13;;
67751;SDS011;54551;51.068;5.826;2023-02-24T14:33:40;14.33;;;5.90;;
67751;SDS011;54551;51.068;5.826;2023-02-24T14:36:22;13.80;;;6.33;;
67751;SDS011;54551;51.068;5.826;2023-02-24T14:41:27;13.63;;;6.37;;
67751;SDS011;54551;51.068;5.826;2023-02-24T14:43:53;13.77;;;6.43;;
67751;SDS011;54551;51.068;5.826;2023-02-24T14:46:20;7.93;;;5.17;;
67751;SDS011;54551;51.068;5.826;2023-02-24T14:48:54;11.27;;;6.13;;
67751;SDS011;54551;51.068;5.826;2023-02-24T14:51:27;13.43;;;5.83;;
67751;SDS011;54551;51.068;5.826;2023-02-24T14:54:01;16.03;;;6.47;;
67751;SDS011;54551;51.068;5.826;2023-02-24T14:56:31;14.73;;;6.13;;
67751;SDS011;54551;51.068;5.826;2023-02-24T15:01:59;11.43;;;6.30;;
67751;SDS011;54551;51.068;5.826;2023-02-24T15:07:04;15.10;;;7.53;;
67751;SDS011;54551;51.068;5.826;2023-02-24T15:09:39;13.13;;;7.97;;
67751;SDS011;54551;51.068;5.826;2023-02-24T15:12:11;11.87;;;7.60;;
67751;SDS011;54551;51.068;5.826;2023-02-24T15:14:41;14.10;;;7.13;;
67751;SDS011;54551;51.068;5.826;2023-02-24T15:17:17;13.90;;;7.23;;
67751;SDS011;54551;51.068;5.826;2023-02-24T15:19:45;15.47;;;7.83;;
67751;SDS011;54551;51.068;5.826;2023-02-24T15:22:20;11.50;;;7.30;;
67751;SDS011;54551;51.068;5.826;2023-02-24T15:24:46;12.27;;;7.67;;
67751;SDS011;54551;51.068;5.826;2023-02-24T15:29:39;13.87;;;8.17;;
67751;SDS011;54551;51.068;5.826;2023-02-24T15:32:16;14.07;;;7.93;;
67751;SDS011;54551;51.068;5.826;2023-02-24T15:34:45;15.07;;;8.23;;
67751;SDS011;54551;51.068;5.826;2023-02-24T15:37:13;15.43;;;8.37;;
67751;SDS011;54551;51.068;5.826;2023-02-24T15:39:48;17.87;;;8.60;;
67751;SDS011;54551;51.068;5.826;2023-02-24T15:42:32;14.57;;;8.90;;
67751;SDS011;54551;51.068;5.826;2023-02-24T15:45:21;11.63;;;8.40;;
67751;SDS011;54551;51.068;5.826;2023-02-24T15:47:53;12.70;;;8.63;;
67751;SDS011;54551;51.068;5.826;2023-02-24T15:50:21;15.77;;;8.20;;
67751;SDS011;54551;51.068;5.826;2023-02-24T15:52:48;15.80;;;8.90;;
67751;SDS011;54551;51.068;5.826;2023-02-24T15:55:14;19.23;;;8.57;;
67751;SDS011;54551;51.068;5.826;2023-02-24T15:57:42;14.83;;;9.43;;
67751;SDS011;54551;51.068;5.826;2023-02-24T16:00:10;14.63;;;9.83;;
67751;SDS011;54551;51.068;5.826;2023-02-24T16:02:38;13.90;;;9.40;;
67751;SDS011;54551;51.068;5.826;2023-02-24T16:05:05;20.40;;;10.33;;
67751;SDS011;54551;51.068;5.826;2023-02-24T16:07:34;16.70;;;10.93;;
67751;SDS011;54551;51.068;5.826;2023-02-24T16:10:02;15.27;;;11.60;;
67751;SDS011;54551;51.068;5.826;2023-02-24T16:12:31;18.00;;;11.37;;
67751;SDS011;54551;51.068;5.826;2023-02-24T16:15:00;18.33;;;11.00;;
67751;SDS011;54551;51.068;5.826;2023-02-24T16:19:55;15.37;;;11.57;;
67751;SDS011;54551;51.068;5.826;2023-02-24T16:22:22;16.33;;;12.17;;
67751;SDS011;54551;51.068;5.826;2023-02-24T16:24:49;17.67;;;12.30;;
67751;SDS011;54551;51.068;5.826;2023-02-24T16:27:15;18.87;;;12.80;;
67751;SDS011;54551;51.068;5.826;2023-02-24T16:29:42;22.53;;;13.07;;
67751;SDS011;54551;51.068;5.826;2023-02-24T16:32:12;18.70;;;12.80;;
67751;SDS011;54551;51.068;5.826;2023-02-24T16:34:38;16.70;;;12.83;;
67751;SDS011;54551;51.068;5.826;2023-02-24T16:37:18;19.87;;;14.10;;
67751;SDS011;54551;51.068;5.826;2023-02-24T16:39:46;18.47;;;14.40;;
67751;SDS011;54551;51.068;5.826;2023-02-24T16:42:14;18.83;;;14.40;;
67751;SDS011;54551;51.068;5.826;2023-02-24T16:44:41;21.60;;;15.20;;
67751;SDS011;54551;51.068;5.826;2023-02-24T16:47:07;20.47;;;14.50;;
67751;SDS011;54551;51.068;5.826;2023-02-24T16:49:39;20.50;;;15.37;;
67751;SDS011;54551;51.068;5.826;2023-02-24T16:52:05;22.00;;;16.20;;
67751;SDS011;54551;51.068;5.826;2023-02-24T16:54:31;23.03;;;15.90;;
67751;SDS011;54551;51.068;5.826;2023-02-24T16:56:57;24.17;;;16.97;;
67751;SDS011;54551;51.068;5.826;2023-02-24T16:59:23;20.83;;;15.90;;
67751;SDS011;54551;51.068;5.826;2023-02-24T17:01:51;23.67;;;17.27;;
67751;SDS011;54551;51.068;5.826;2023-02-24T17:04:18;25.57;;;18.03;;
67751;SDS011;54551;51.068;5.826;2023-02-24T17:06:45;20.47;;;16.93;;
67751;SDS011;54551;51.068;5.826;2023-02-24T17:09:11;22.67;;;16.70;;
67751;SDS011;54551;51.068;5.826;2023-02-24T17:11:40;18.13;;;15.40;;
67751;SDS011;54551;51.068;5.826;2023-02-24T17:14:16;24.37;;;18.27;;
67751;SDS011;54551;51.068;5.826;2023-02-24T17:16:43;28.27;;;21.17;;
67751;SDS011;54551;51.068;5.826;2023-02-24T17:19:10;27.37;;;20.83;;
67751;SDS011;54551;51.068;5.826;2023-02-24T17:21:36;28.63;;;21.27;;
67751;SDS011;54551;51.068;5.826;2023-02-24T17:24:07;22.90;;;19.80;;
67751;SDS011;54551;51.068;5.826;2023-02-24T17:26:39;24.37;;;18.17;;
67751;SDS011;54551;51.068;5.826;2023-02-24T17:29:05;21.93;;;17.93;;
67751;SDS011;54551;51.068;5.826;2023-02-24T17:31:31;24.13;;;17.50;;
67751;SDS011;54551;51.068;5.826;2023-02-24T17:33:59;24.40;;;17.50;;
67751;SDS011;54551;51.068;5.826;2023-02-24T17:36:26;21.73;;;16.53;;
67751;SDS011;54551;51.068;5.826;2023-02-24T17:38:52;22.93;;;17.90;;
67751;SDS011;54551;51.068;5.826;2023-02-24T17:41:20;24.83;;;17.57;;
67751;SDS011;54551;51.068;5.826;2023-02-24T17:43:51;21.67;;;15.70;;
67751;SDS011;54551;51.068;5.826;2023-02-24T17:46:18;22.07;;;16.53;;
67751;SDS011;54551;51.068;5.826;2023-02-24T17:48:44;27.33;;;17.17;;
67751;SDS011;54551;51.068;5.826;2023-02-24T17:51:14;21.13;;;15.83;;